Time;durP1;ratioP1;P1;durP2;ratioP2;P2;SDS_P1;SDS_P2;PMS_P1;PMS_P2;Temp;Humidity;BMP_temperature;BMP_pressure;BME280_temperature;BME280_humidity;BME280_pressure;Samples;Min_cycle;Max_cycle;Signal;HPM_P1;HPM_P2
2023/04/17 00:00:49;;;;;;;66.30;27.25;;;;;;;;;;5064373;28;20523;-67
2023/04/17 00:03:15;;;;;;;57.38;25.55;;;;;;;;;;5065513;28;20047;-67
2023/04/17 00:05:44;;;;;;;50.35;23.75;;;;;;;;;;5065522;28;20041;-67
2023/04/17 00:08:10;;;;;;;49.50;23.75;;;;;;;;;;5065323;28;20070;-67
2023/04/17 00:10:37;;;;;;;57.63;24.98;;;;;;;;;;5065854;28;20052;-67
2023/04/17 00:13:03;;;;;;;51.42;23.98;;;;;;;;;;5047306;28;20056;-67
2023/04/17 00:15:29;;;;;;;48.80;22.80;;;;;;;;;;5064517;28;20111;-67
2023/04/17 00:17:55;;;;;;;46.50;22.60;;;;;;;;;;5065243;28;20037;-67
2023/04/17 00:20:21;;;;;;;45.85;21.70;;;;;;;;;;5028286;28;1100949;-67
2023/04/17 00:22:47;;;;;;;43.17;20.75;;;;;;;;;;5065147;28;20056;-67
2023/04/17 00:25:13;;;;;;;45.25;21.83;;;;;;;;;;5065954;28;20384;-67
2023/04/17 00:27:41;;;;;;;37.67;20.45;;;;;;;;;;5066124;28;20041;-67
2023/04/17 00:30:08;;;;;;;50.15;22.30;;;;;;;;;;5065149;28;20049;-67
2023/04/17 00:32:34;;;;;;;48.05;21.02;;;;;;;;;;5048302;28;20048;-67
2023/04/17 00:35:00;;;;;;;44.10;20.35;;;;;;;;;;5066536;28;20045;-67
2023/04/17 00:37:27;;;;;;;58.75;23.10;;;;;;;;;;5046900;28;20956;-67
2023/04/17 00:39:53;;;;;;;47.67;21.60;;;;;;;;;;5065965;28;20128;-67
2023/04/17 00:42:19;;;;;;;47.10;22.58;;;;;;;;;;5066126;28;20116;-67
2023/04/17 00:44:45;;;;;;;46.00;21.77;;;;;;;;;;5065282;28;20041;-67
2023/04/17 00:47:12;;;;;;;48.40;23.33;;;;;;;;;;5066967;28;20044;-67
2023/04/17 00:49:38;;;;;;;41.47;21.88;;;;;;;;;;5065281;28;20075;-67
2023/04/17 00:52:05;;;;;;;42.42;23.38;;;;;;;;;;5066089;28;20052;-67
2023/04/17 00:54:31;;;;;;;43.75;22.20;;;;;;;;;;5065925;28;20040;-67
2023/04/17 00:56:58;;;;;;;37.97;21.77;;;;;;;;;;5064877;28;20086;-67
2023/04/17 00:59:24;;;;;;;46.75;23.52;;;;;;;;;;5066227;28;20396;-67
2023/04/17 01:01:50;;;;;;;48.28;21.83;;;;;;;;;;5066429;28;20123;-67
2023/04/17 01:04:16;;;;;;;48.15;22.88;;;;;;;;;;5064888;28;20133;-67
2023/04/17 01:06:43;;;;;;;44.95;22.50;;;;;;;;;;5047754;28;20048;-67
2023/04/17 01:09:09;;;;;;;41.90;21.77;;;;;;;;;;5047432;28;20053;-67
2023/04/17 01:11:35;;;;;;;41.58;20.63;;;;;;;;;;5064954;28;20079;-67
2023/04/17 01:14:02;;;;;;;41.10;21.05;;;;;;;;;;5063259;28;20044;-67
2023/04/17 01:16:29;;;;;;;49.50;23.00;;;;;;;;;;5066560;28;20048;-67
2023/04/17 01:18:55;;;;;;;52.97;21.65;;;;;;;;;;5067883;28;20064;-67
2023/04/17 01:21:22;;;;;;;58.53;23.45;;;;;;;;;;5068553;28;20114;-67
2023/04/17 01:23:50;;;;;;;44.40;21.80;;;;;;;;;;5068776;28;20111;-67
2023/04/17 01:26:19;;;;;;;36.45;21.45;;;;;;;;;;5050437;28;20124;-67
2023/04/17 01:28:51;;;;;;;37.95;19.95;;;;;;;;;;5069078;28;20032;-67
2023/04/17 01:31:17;;;;;;;42.67;21.77;;;;;;;;;;5066901;28;20041;-67
2023/04/17 01:33:44;;;;;;;44.63;20.38;;;;;;;;;;5051404;28;20111;-67
2023/04/17 01:36:10;;;;;;;41.30;22.02;;;;;;;;;;5051163;28;20107;-67
2023/04/17 01:38:36;;;;;;;42.40;20.70;;;;;;;;;;5067901;28;20583;-67
2023/04/17 01:41:08;;;;;;;49.05;22.25;;;;;;;;;;5064789;28;20048;-67
2023/04/17 01:43:36;;;;;;;44.60;21.85;;;;;;;;;;5068528;28;20057;-67
2023/04/17 01:46:02;;;;;;;52.00;22.40;;;;;;;;;;5067732;28;20079;-67
2023/04/17 01:48:28;;;;;;;45.13;23.33;;;;;;;;;;5021729;28;20488;-67
2023/04/17 01:50:54;;;;;;;57.42;22.58;;;;;;;;;;5069441;28;20508;-67
2023/04/17 01:53:20;;;;;;;47.28;22.98;;;;;;;;;;5068024;28;20499;-67
2023/04/17 01:55:46;;;;;;;50.70;23.02;;;;;;;;;;5050077;28;20040;-67
2023/04/17 01:58:12;;;;;;;49.47;23.55;;;;;;;;;;5068314;28;20068;-67
2023/04/17 02:00:39;;;;;;;54.03;23.23;;;;;;;;;;5067698;28;20437;-67
2023/04/17 02:03:05;;;;;;;53.78;23.45;;;;;;;;;;5066682;28;20377;-67
2023/04/17 02:05:31;;;;;;;46.78;23.60;;;;;;;;;;5063177;28;20036;-67
2023/04/17 02:07:57;;;;;;;47.05;23.73;;;;;;;;;;5049723;28;20448;-67
2023/04/17 02:10:23;;;;;;;59.00;23.75;;;;;;;;;;5067849;28;20565;-67
2023/04/17 02:12:49;;;;;;;46.97;24.73;;;;;;;;;;5068119;28;20044;-67
2023/04/17 02:15:15;;;;;;;52.47;23.90;;;;;;;;;;5068182;28;20032;-67
2023/04/17 02:17:42;;;;;;;50.45;26.00;;;;;;;;;;5069055;28;20485;-67
2023/04/17 02:20:08;;;;;;;51.85;22.90;;;;;;;;;;5048682;28;20050;-67
2023/04/17 02:22:34;;;;;;;59.70;26.42;;;;;;;;;;5067228;28;20059;-67
2023/04/17 02:25:00;;;;;;;49.60;23.23;;;;;;;;;;5067907;28;20429;-67
2023/04/17 02:27:27;;;;;;;44.58;24.38;;;;;;;;;;5067921;28;20434;-67
2023/04/17 02:29:53;;;;;;;54.05;25.95;;;;;;;;;;5067291;28;20052;-67
2023/04/17 02:32:19;;;;;;;59.17;24.20;;;;;;;;;;5068163;28;20055;-67
2023/04/17 02:34:45;;;;;;;58.83;25.45;;;;;;;;;;5067131;28;20036;-67
2023/04/17 02:37:11;;;;;;;62.17;25.23;;;;;;;;;;5049034;28;20047;-67
2023/04/17 02:39:38;;;;;;;58.50;27.30;;;;;;;;;;5067745;28;20186;-67
2023/04/17 02:42:04;;;;;;;58.83;25.45;;;;;;;;;;5064589;28;20502;-67
2023/04/17 02:44:30;;;;;;;60.88;26.83;;;;;;;;;;5050498;28;20157;-67
2023/04/17 02:46:56;;;;;;;61.95;25.23;;;;;;;;;;5067148;28;20040;-67
2023/04/17 02:49:22;;;;;;;71.10;27.05;;;;;;;;;;5066698;28;20044;-67
2023/04/17 02:51:48;;;;;;;56.42;25.58;;;;;;;;;;5067408;28;20045;-67
2023/04/17 02:54:15;;;;;;;61.13;26.48;;;;;;;;;;5067803;28;20123;-66
2023/04/17 02:56:41;;;;;;;59.10;26.75;;;;;;;;;;5066973;28;20056;-66
2023/04/17 02:59:07;;;;;;;60.35;26.90;;;;;;;;;;5067493;28;20124;-66
2023/04/17 03:01:36;;;;;;;59.58;26.83;;;;;;;;;;5067001;28;20135;-66
2023/04/17 03:04:02;;;;;;;51.75;24.95;;;;;;;;;;5048617;28;20119;-66
2023/04/17 03:06:29;;;;;;;80.65;27.58;;;;;;;;;;5066521;28;20404;-66
2023/04/17 03:08:55;;;;;;;99.68;27.35;;;;;;;;;;5067286;28;20042;-66
2023/04/17 03:11:22;;;;;;;87.40;26.85;;;;;;;;;;5067006;28;20813;-66
2023/04/17 03:13:48;;;;;;;76.00;27.67;;;;;;;;;;5067376;28;20143;-66
2023/04/17 03:16:14;;;;;;;59.05;26.45;;;;;;;;;;5067040;28;20064;-66
2023/04/17 03:18:40;;;;;;;65.05;27.73;;;;;;;;;;5047888;28;20056;-66
2023/04/17 03:21:07;;;;;;;64.93;27.20;;;;;;;;;;5066232;28;20040;-66
2023/04/17 03:23:33;;;;;;;52.83;25.58;;;;;;;;;;5067778;28;20117;-66
2023/04/17 03:26:00;;;;;;;60.15;27.00;;;;;;;;;;5066046;28;20056;-66
2023/04/17 03:28:26;;;;;;;76.10;28.35;;;;;;;;;;5066604;28;20036;-66
2023/04/17 03:30:54;;;;;;;60.65;25.40;;;;;;;;;;5066524;28;20102;-66
2023/04/17 03:33:20;;;;;;;79.28;26.65;;;;;;;;;;5066435;28;20072;-66
2023/04/17 03:35:46;;;;;;;69.60;24.75;;;;;;;;;;5067438;28;20045;-66
2023/04/17 03:38:12;;;;;;;56.75;26.83;;;;;;;;;;5066517;28;20098;-67
2023/04/17 03:40:39;;;;;;;68.50;28.05;;;;;;;;;;5065629;28;20128;-66
2023/04/17 03:43:05;;;;;;;111.65;29.17;;;;;;;;;;5046069;28;20070;-66
2023/04/17 03:45:31;;;;;;;80.07;26.23;;;;;;;;;;5065511;28;20074;-66
2023/04/17 03:47:57;;;;;;;98.85;27.10;;;;;;;;;;5067863;28;20101;-66
2023/04/17 03:50:24;;;;;;;57.95;23.63;;;;;;;;;;5066847;28;20032;-66
2023/04/17 03:52:50;;;;;;;130.68;25.83;;;;;;;;;;5065715;28;20174;-66
2023/04/17 03:55:16;;;;;;;104.32;27.42;;;;;;;;;;5048512;28;20502;-66
2023/04/17 03:57:42;;;;;;;92.10;25.05;;;;;;;;;;5049054;28;20118;-66
2023/04/17 04:00:09;;;;;;;106.88;28.42;;;;;;;;;;5066206;28;20035;-66
2023/04/17 04:02:36;;;;;;;116.68;27.95;;;;;;;;;;5067577;28;20162;-66
2023/04/17 04:05:02;;;;;;;93.32;26.35;;;;;;;;;;5066079;28;20059;-66
2023/04/17 04:07:28;;;;;;;104.93;27.45;;;;;;;;;;5047681;28;20066;-66
2023/04/17 04:09:55;;;;;;;149.82;28.55;;;;;;;;;;5047972;28;20045;-66
2023/04/17 04:12:21;;;;;;;55.85;24.75;;;;;;;;;;5048556;28;20412;-66
2023/04/17 04:14:48;;;;;;;182.32;29.20;;;;;;;;;;5065851;28;20086;-66
2023/04/17 04:17:14;;;;;;;141.40;28.52;;;;;;;;;;5049298;28;20389;-66
2023/04/17 04:19:42;;;;;;;130.82;27.50;;;;;;;;;;5065991;28;20060;-66
2023/04/17 04:22:09;;;;;;;100.22;27.95;;;;;;;;;;5047329;28;20430;-66
2023/04/17 04:24:35;;;;;;;244.85;32.28;;;;;;;;;;5065379;28;20444;-66
2023/04/17 04:27:03;;;;;;;181.45;30.15;;;;;;;;;;5048211;28;20111;-66
2023/04/17 04:29:29;;;;;;;163.52;30.40;;;;;;;;;;5065544;28;20086;-66
2023/04/17 04:31:55;;;;;;;152.45;31.27;;;;;;;;;;5066558;28;20515;-66
2023/04/17 04:34:24;;;;;;;181.35;31.30;;;;;;;;;;5066499;28;20370;-66
2023/04/17 04:36:51;;;;;;;133.23;29.05;;;;;;;;;;5064864;28;20080;-66
2023/04/17 04:39:19;;;;;;;78.53;27.20;;;;;;;;;;5066109;28;20449;-66
2023/04/17 04:41:45;;;;;;;92.75;30.23;;;;;;;;;;5065273;28;20083;-66
2023/04/17 04:44:11;;;;;;;56.85;27.95;;;;;;;;;;5047542;28;20090;-66
2023/04/17 04:46:37;;;;;;;151.13;28.80;;;;;;;;;;5063696;28;20040;-66
2023/04/17 04:49:04;;;;;;;243.07;32.40;;;;;;;;;;5065835;28;20068;-66
2023/04/17 04:51:32;;;;;;;145.45;30.05;;;;;;;;;;5048435;28;20060;-66
2023/04/17 04:53:58;;;;;;;185.63;29.10;;;;;;;;;;5070145;28;20074;-66
2023/04/17 04:56:24;;;;;;;70.00;25.10;;;;;;;;;;5068468;28;20051;-66
2023/04/17 04:58:51;;;;;;;139.90;26.80;;;;;;;;;;5069640;28;20094;-66
2023/04/17 05:01:17;;;;;;;233.90;29.02;;;;;;;;;;5052560;28;20139;-66
2023/04/17 05:03:44;;;;;;;168.52;26.83;;;;;;;;;;5069023;28;20109;-66
2023/04/17 05:06:12;;;;;;;125.22;27.33;;;;;;;;;;5069432;28;20088;-66
2023/04/17 05:08:39;;;;;;;284.52;31.65;;;;;;;;;;5068811;28;20418;-67
2023/04/17 05:11:05;;;;;;;53.92;23.77;;;;;;;;;;5068096;28;20037;-66
2023/04/17 05:13:32;;;;;;;94.53;28.23;;;;;;;;;;5069309;28;20147;-66
2023/04/17 05:15:58;;;;;;;133.48;28.83;;;;;;;;;;5069490;28;20119;-66
2023/04/17 05:18:24;;;;;;;232.07;32.70;;;;;;;;;;5068906;28;20060;-66
2023/04/17 05:20:51;;;;;;;132.10;29.33;;;;;;;;;;5069477;28;21217;-66
2023/04/17 05:23:21;;;;;;;169.32;31.30;;;;;;;;;;5068461;28;20059;-66
2023/04/17 05:25:48;;;;;;;201.07;31.80;;;;;;;;;;5068445;28;20037;-66
2023/04/17 05:28:14;;;;;;;196.57;30.88;;;;;;;;;;5069874;28;20040;-67
2023/04/17 05:30:40;;;;;;;107.78;28.45;;;;;;;;;;5069402;28;20032;-67
2023/04/17 05:33:06;;;;;;;124.57;28.58;;;;;;;;;;5068986;28;20044;-67
2023/04/17 05:35:33;;;;;;;219.98;31.73;;;;;;;;;;5068892;28;20452;-67
2023/04/17 05:37:59;;;;;;;163.73;30.30;;;;;;;;;;5068012;28;20170;-67
2023/04/17 05:40:25;;;;;;;152.52;31.17;;;;;;;;;;5068725;28;20044;-67
2023/04/17 05:42:51;;;;;;;102.00;28.83;;;;;;;;;;5050858;28;20486;-67
2023/04/17 05:45:17;;;;;;;76.40;28.25;;;;;;;;;;5050458;28;20032;-67
2023/04/17 05:47:44;;;;;;;83.85;28.88;;;;;;;;;;5051701;28;20052;-67
2023/04/17 05:50:10;;;;;;;146.45;30.45;;;;;;;;;;5067351;28;20408;-67
2023/04/17 05:52:36;;;;;;;129.65;30.25;;;;;;;;;;5048268;28;20040;-67
2023/04/17 05:55:04;;;;;;;77.60;28.23;;;;;;;;;;5066508;28;20463;-66
2023/04/17 05:57:30;;;;;;;75.65;27.52;;;;;;;;;;5050805;28;20456;-66
2023/04/17 05:59:56;;;;;;;124.63;28.55;;;;;;;;;;5067271;28;20508;-66
2023/04/17 06:02:22;;;;;;;104.90;29.73;;;;;;;;;;5050443;28;20488;-67
2023/04/17 06:04:48;;;;;;;93.38;28.92;;;;;;;;;;5067850;28;20131;-67
2023/04/17 06:07:15;;;;;;;96.72;28.40;;;;;;;;;;5050652;28;20044;-67
2023/04/17 06:09:41;;;;;;;105.60;28.45;;;;;;;;;;5068928;28;20039;-67
2023/04/17 06:12:13;;;;;;;71.35;26.75;;;;;;;;;;5049995;28;20052;-67
2023/04/17 06:14:39;;;;;;;75.43;26.20;;;;;;;;;;5049323;28;20044;-65
2023/04/17 06:17:06;;;;;;;128.48;27.92;;;;;;;;;;5066936;28;20052;-66
2023/04/17 06:19:32;;;;;;;84.35;25.55;;;;;;;;;;5049956;28;20123;-66
2023/04/17 06:21:58;;;;;;;72.50;25.08;;;;;;;;;;5066503;28;20133;-65
2023/04/17 06:24:24;;;;;;;53.13;23.33;;;;;;;;;;5068787;28;20056;-65
2023/04/17 06:26:50;;;;;;;60.08;23.23;;;;;;;;;;5067870;28;20523;-65
2023/04/17 06:29:16;;;;;;;43.85;21.20;;;;;;;;;;5067496;28;20029;-66
2023/04/17 06:31:42;;;;;;;41.42;19.88;;;;;;;;;;5067741;28;20115;-66
2023/04/17 06:34:09;;;;;;;47.67;22.33;;;;;;;;;;5067336;28;20037;-66
2023/04/17 06:36:35;;;;;;;42.15;20.38;;;;;;;;;;5065226;28;20147;-66
2023/04/17 06:39:01;;;;;;;48.47;21.38;;;;;;;;;;5067585;28;20733;-66
2023/04/17 06:41:27;;;;;;;42.05;21.77;;;;;;;;;;5066830;28;20040;-66
2023/04/17 06:43:53;;;;;;;44.50;21.52;;;;;;;;;;5067269;28;20040;-66
2023/04/17 06:46:21;;;;;;;60.30;23.50;;;;;;;;;;5068192;28;20039;-66
2023/04/17 06:48:50;;;;;;;42.75;22.52;;;;;;;;;;5066579;28;20051;-66
2023/04/17 06:51:19;;;;;;;68.70;25.15;;;;;;;;;;5064983;28;20489;-66
2023/04/17 06:53:46;;;;;;;58.05;23.70;;;;;;;;;;5068343;28;20454;-66
2023/04/17 06:56:12;;;;;;;72.75;24.83;;;;;;;;;;5065788;28;20158;-66
2023/04/17 06:58:42;;;;;;;47.75;23.20;;;;;;;;;;5048696;28;20064;-66
2023/04/17 07:01:10;;;;;;;66.18;25.63;;;;;;;;;;5046209;28;20393;-66
2023/04/17 07:03:36;;;;;;;56.38;24.27;;;;;;;;;;5063847;28;20050;-66
2023/04/17 07:06:02;;;;;;;59.20;24.27;;;;;;;;;;5063994;28;20127;-66
2023/04/17 07:08:28;;;;;;;41.67;21.10;;;;;;;;;;5067053;28;20464;-66
2023/04/17 07:10:55;;;;;;;44.08;22.00;;;;;;;;;;5066279;28;20090;-66
2023/04/17 07:13:21;;;;;;;47.45;22.60;;;;;;;;;;5068174;28;20396;-66
2023/04/17 07:15:51;;;;;;;56.30;24.38;;;;;;;;;;5066646;28;20594;-65
2023/04/17 07:18:17;;;;;;;43.65;23.05;;;;;;;;;;5064491;28;20491;-66
2023/04/17 07:20:43;;;;;;;48.33;24.58;;;;;;;;;;5065494;28;20441;-66
2023/04/17 07:23:09;;;;;;;55.35;25.00;;;;;;;;;;5048838;28;20400;-66
2023/04/17 07:25:36;;;;;;;52.58;24.05;;;;;;;;;;5063666;28;20107;-66
2023/04/17 07:28:02;;;;;;;47.35;23.20;;;;;;;;;;5068244;28;20045;-66
2023/04/17 07:30:28;;;;;;;47.88;23.85;;;;;;;;;;5065559;28;20048;-66
2023/04/17 07:32:54;;;;;;;42.38;21.85;;;;;;;;;;5066949;28;20040;-66
2023/04/17 07:35:20;;;;;;;44.35;23.83;;;;;;;;;;5066523;28;20032;-66
2023/04/17 07:37:46;;;;;;;47.75;22.27;;;;;;;;;;5065646;28;20083;-66
2023/04/17 07:40:13;;;;;;;40.47;21.90;;;;;;;;;;5067582;28;20040;-66
2023/04/17 07:42:39;;;;;;;39.80;22.42;;;;;;;;;;5066431;28;20433;-66
2023/04/17 07:45:06;;;;;;;37.85;22.10;;;;;;;;;;5065932;28;20396;-66
2023/04/17 07:47:32;;;;;;;29.77;19.15;;;;;;;;;;5048064;28;20078;-66
2023/04/17 07:49:58;;;;;;;33.13;19.02;;;;;;;;;;5066415;28;20097;-66
2023/04/17 07:52:24;;;;;;;32.90;20.20;;;;;;;;;;5048881;28;20067;-66
2023/04/17 07:54:50;;;;;;;37.03;20.95;;;;;;;;;;5049843;28;20064;-66
2023/04/17 07:57:17;;;;;;;35.13;19.70;;;;;;;;;;5066303;28;20041;-66
2023/04/17 07:59:43;;;;;;;34.58;20.67;;;;;;;;;;5065911;28;20063;-66
2023/04/17 08:02:09;;;;;;;34.28;20.77;;;;;;;;;;5065901;28;20094;-66
2023/04/17 08:04:36;;;;;;;27.38;18.42;;;;;;;;;;5063495;28;20159;-66
2023/04/17 08:07:02;;;;;;;30.13;17.58;;;;;;;;;;5040168;28;20056;-66
2023/04/17 08:09:28;;;;;;;30.60;17.83;;;;;;;;;;5044268;28;20119;-66
2023/04/17 08:11:55;;;;;;;33.38;19.20;;;;;;;;;;5067308;28;20047;-66
2023/04/17 08:14:21;;;;;;;29.55;18.02;;;;;;;;;;5047473;28;20425;-66
2023/04/17 08:16:47;;;;;;;25.00;17.10;;;;;;;;;;5066142;28;20075;-66
2023/04/17 08:19:13;;;;;;;29.55;17.98;;;;;;;;;;5044146;28;20127;-66
2023/04/17 08:21:40;;;;;;;30.60;18.15;;;;;;;;;;5046280;28;20079;-66
2023/04/17 08:24:06;;;;;;;32.20;19.27;;;;;;;;;;5046737;28;20461;-66
2023/04/17 08:26:32;;;;;;;28.38;18.88;;;;;;;;;;5047241;28;20500;-66
2023/04/17 08:29:00;;;;;;;31.65;19.85;;;;;;;;;;5049264;28;20047;-66
2023/04/17 08:31:27;;;;;;;34.22;22.55;;;;;;;;;;5045049;28;20448;-66
2023/04/17 08:33:54;;;;;;;36.80;22.45;;;;;;;;;;5048629;28;20052;-66
2023/04/17 08:36:21;;;;;;;38.38;22.90;;;;;;;;;;5050375;28;20032;-66
2023/04/17 08:38:47;;;;;;;47.03;25.42;;;;;;;;;;5048674;28;20053;-66
2023/04/17 08:41:23;;;;;;;45.58;25.33;;;;;;;;;;5049406;28;20045;-66
2023/04/17 08:43:49;;;;;;;45.42;25.40;;;;;;;;;;5049575;28;20053;-66
2023/04/17 08:46:18;;;;;;;37.03;22.90;;;;;;;;;;5050089;28;20037;-66
2023/04/17 08:48:45;;;;;;;37.00;23.27;;;;;;;;;;5048638;28;20036;-67
2023/04/17 08:51:11;;;;;;;32.92;21.63;;;;;;;;;;5047160;28;20041;-66
2023/04/17 08:53:37;;;;;;;32.70;21.70;;;;;;;;;;5048550;28;20114;-66
2023/04/17 08:56:04;;;;;;;33.35;20.15;;;;;;;;;;5046917;28;20041;-66
2023/04/17 08:58:32;;;;;;;30.63;19.85;;;;;;;;;;5048541;28;20087;-66
2023/04/17 09:01:07;;;;;;;32.08;19.98;;;;;;;;;;5049320;28;20501;-66
2023/04/17 09:03:40;;;;;;;29.52;18.75;;;;;;;;;;5046307;28;20127;-66
2023/04/17 09:06:08;;;;;;;25.00;18.23;;;;;;;;;;5049780;28;20047;-66
2023/04/17 09:08:34;;;;;;;24.75;16.60;;;;;;;;;;5049928;28;20041;-66
2023/04/17 09:11:00;;;;;;;24.10;17.00;;;;;;;;;;5046223;28;20224;-66
2023/04/17 09:13:27;;;;;;;26.20;18.02;;;;;;;;;;5049240;28;20131;-66
2023/04/17 09:16:04;;;;;;;26.50;17.40;;;;;;;;;;5048409;28;20121;-66
2023/04/17 09:18:31;;;;;;;27.35;19.92;;;;;;;;;;5050837;28;20139;-66
2023/04/17 09:20:58;;;;;;;23.42;17.60;;;;;;;;;;5068717;28;20115;-66
2023/04/17 09:23:26;;;;;;;28.90;19.70;;;;;;;;;;5067968;28;20052;-66
2023/04/17 09:26:10;;;;;;;27.05;18.30;;;;;;;;;;5068842;28;20102;-66
2023/04/17 09:28:38;;;;;;;25.13;16.80;;;;;;;;;;5068959;28;20044;-66
2023/04/17 09:31:06;;;;;;;22.65;16.67;;;;;;;;;;5068096;28;20037;-66
2023/04/17 09:33:32;;;;;;;20.63;16.48;;;;;;;;;;5069087;28;20074;-66
2023/04/17 09:36:26;;;;;;;23.92;16.90;;;;;;;;;;5069020;28;20037;-66
2023/04/17 09:38:52;;;;;;;22.92;15.93;;;;;;;;;;5065774;28;20503;-66
2023/04/17 09:41:23;;;;;;;20.23;15.13;;;;;;;;;;5069514;28;20040;-66
2023/04/17 09:43:49;;;;;;;23.52;16.15;;;;;;;;;;5068967;28;20407;-66
2023/04/17 09:46:30;;;;;;;22.52;15.48;;;;;;;;;;5065275;28;20087;-66
2023/04/17 09:48:58;;;;;;;21.55;17.50;;;;;;;;;;5051876;28;20052;-66
2023/04/17 09:51:25;;;;;;;22.27;17.48;;;;;;;;;;5067880;28;20572;-66
2023/04/17 09:53:52;;;;;;;25.85;19.20;;;;;;;;;;5069140;28;20728;-66
2023/04/17 09:56:20;;;;;;;20.00;16.02;;;;;;;;;;5050404;28;20053;-66
2023/04/17 09:58:47;;;;;;;20.67;16.20;;;;;;;;;;5067633;28;20560;-66
2023/04/17 10:01:15;;;;;;;20.90;16.67;;;;;;;;;;5068193;28;20482;-66
2023/04/17 10:03:42;;;;;;;17.75;15.32;;;;;;;;;;5068275;28;20040;-66
2023/04/17 10:06:08;;;;;;;17.98;13.88;;;;;;;;;;5050381;28;20143;-66
2023/04/17 10:08:35;;;;;;;19.63;14.70;;;;;;;;;;5068340;28;20059;-66
2023/04/17 10:11:03;;;;;;;21.27;14.02;;;;;;;;;;5050571;28;20127;-66
2023/04/17 10:13:30;;;;;;;17.52;13.38;;;;;;;;;;5050050;28;20048;-66
2023/04/17 10:15:56;;;;;;;17.10;13.23;;;;;;;;;;5067412;28;20060;-66
2023/04/17 10:18:23;;;;;;;14.10;12.35;;;;;;;;;;5065856;28;20150;-66
2023/04/17 10:20:50;;;;;;;15.77;12.77;;;;;;;;;;5050005;28;20114;-66
2023/04/17 10:23:27;;;;;;;15.90;12.40;;;;;;;;;;5049784;28;20040;-66
2023/04/17 10:26:13;;;;;;;16.70;13.55;;;;;;;;;;5068354;28;20055;-66
2023/04/17 10:28:47;;;;;;;16.92;12.75;;;;;;;;;;5065438;28;20400;-66
2023/04/17 10:31:13;;;;;;;16.55;12.25;;;;;;;;;;5068150;28;20111;-66
2023/04/17 10:33:50;;;;;;;18.88;13.35;;;;;;;;;;5067206;28;20184;-66
2023/04/17 10:36:36;;;;;;;15.02;11.80;;;;;;;;;;5047288;28;20041;-66
2023/04/17 10:39:11;;;;;;;13.88;11.15;;;;;;;;;;5068058;28;20052;-66
2023/04/17 10:41:58;;;;;;;16.60;12.27;;;;;;;;;;5067973;28;20040;-66
2023/04/17 10:44:25;;;;;;;14.68;11.40;;;;;;;;;;5062565;28;20532;-66
2023/04/17 10:46:51;;;;;;;16.02;12.35;;;;;;;;;;5048950;28;20054;-66
2023/04/17 10:49:17;;;;;;;14.70;11.50;;;;;;;;;;5066726;28;20033;-67
2023/04/17 10:51:43;;;;;;;12.50;10.52;;;;;;;;;;5067522;28;20472;-67
2023/04/17 10:54:12;;;;;;;14.18;11.95;;;;;;;;;;5067604;28;20071;-67
2023/04/17 10:56:38;;;;;;;14.52;11.60;;;;;;;;;;5066377;28;20040;-67
2023/04/17 10:59:11;;;;;;;14.70;12.52;;;;;;;;;;5067565;28;20040;-67
2023/04/17 11:01:38;;;;;;;13.23;10.82;;;;;;;;;;5066288;28;20041;-67
2023/04/17 11:04:05;;;;;;;13.45;11.32;;;;;;;;;;5049215;28;20052;-67
2023/04/17 11:06:32;;;;;;;15.65;12.02;;;;;;;;;;5064524;28;20055;-67
2023/04/17 11:08:59;;;;;;;15.20;12.23;;;;;;;;;;5066807;28;20047;-67
2023/04/17 11:11:26;;;;;;;15.57;12.27;;;;;;;;;;5067277;28;20051;-67
2023/04/17 11:13:52;;;;;;;15.63;11.55;;;;;;;;;;5067063;28;20048;-67
2023/04/17 11:16:21;;;;;;;15.57;11.73;;;;;;;;;;5065977;28;20129;-67
2023/04/17 11:18:48;;;;;;;13.75;12.07;;;;;;;;;;5065977;28;20071;-67
2023/04/17 11:21:15;;;;;;;17.35;12.73;;;;;;;;;;5067120;28;20041;-67
2023/04/17 11:23:50;;;;;;;16.85;13.02;;;;;;;;;;5065245;28;20479;-67
2023/04/17 11:26:17;;;;;;;17.60;13.50;;;;;;;;;;5067292;28;20045;-67
2023/04/17 11:28:43;;;;;;;15.80;13.05;;;;;;;;;;5067487;28;20326;-67
2023/04/17 11:31:11;;;;;;;18.90;12.85;;;;;;;;;;5066185;28;20416;-67
2023/04/17 11:33:37;;;;;;;14.80;12.43;;;;;;;;;;5061020;28;20040;-66
2023/04/17 11:36:05;;;;;;;14.65;12.63;;;;;;;;;;5066571;28;20076;-66
2023/04/17 11:38:31;;;;;;;18.38;12.68;;;;;;;;;;5065822;28;20440;-67
2023/04/17 11:40:59;;;;;;;16.00;12.10;;;;;;;;;;5049034;28;20119;-66
2023/04/17 11:43:25;;;;;;;15.05;12.38;;;;;;;;;;5067560;28;20044;-66
2023/04/17 11:45:53;;;;;;;14.98;12.95;;;;;;;;;;5066009;28;20590;-66
2023/04/17 11:48:22;;;;;;;21.80;13.30;;;;;;;;;;5066238;28;20473;-66
2023/04/17 11:50:48;;;;;;;15.57;12.65;;;;;;;;;;5065504;28;20392;-65
2023/04/17 11:53:15;;;;;;;18.45;13.95;;;;;;;;;;5066683;28;20040;-66
2023/04/17 11:55:42;;;;;;;18.45;14.15;;;;;;;;;;5063866;28;20055;-66
2023/04/17 11:58:09;;;;;;;16.90;13.80;;;;;;;;;;5066437;28;20124;-66
2023/04/17 12:00:36;;;;;;;16.52;13.98;;;;;;;;;;5066524;28;20036;-66
2023/04/17 12:03:03;;;;;;;18.92;15.05;;;;;;;;;;5066397;28;20084;-66
2023/04/17 12:05:30;;;;;;;17.10;14.07;;;;;;;;;;5065634;28;20079;-66
2023/04/17 12:08:03;;;;;;;17.52;13.52;;;;;;;;;;5066409;28;20140;-66
2023/04/17 12:10:39;;;;;;;16.95;13.35;;;;;;;;;;5065798;28;20048;-66
2023/04/17 12:13:05;;;;;;;15.45;13.10;;;;;;;;;;5065323;28;20086;-66
2023/04/17 12:15:31;;;;;;;17.70;14.13;;;;;;;;;;5066718;28;20033;-65
2023/04/17 12:17:57;;;;;;;17.33;13.23;;;;;;;;;;5066266;28;20052;-65
2023/04/17 12:20:23;;;;;;;19.27;14.38;;;;;;;;;;5062020;28;20105;-66
2023/04/17 12:22:49;;;;;;;17.02;14.70;;;;;;;;;;5066660;28;20054;-66
2023/04/17 12:25:15;;;;;;;17.73;15.05;;;;;;;;;;5047421;28;20079;-66
2023/04/17 12:27:42;;;;;;;17.75;14.80;;;;;;;;;;5065286;28;20044;-65
2023/04/17 12:30:08;;;;;;;17.00;14.63;;;;;;;;;;5065790;28;20101;-67
2023/04/17 12:32:34;;;;;;;18.80;14.70;;;;;;;;;;5064031;28;20045;-67
2023/04/17 12:35:00;;;;;;;17.98;14.70;;;;;;;;;;5047253;28;20040;-67
2023/04/17 12:37:26;;;;;;;19.13;14.93;;;;;;;;;;5065679;28;20456;-67
2023/04/17 12:39:53;;;;;;;18.63;15.20;;;;;;;;;;5065196;28;20399;-67
2023/04/17 12:42:19;;;;;;;19.15;14.80;;;;;;;;;;5065883;28;20505;-67
2023/04/17 12:44:45;;;;;;;18.92;14.75;;;;;;;;;;5066442;28;20044;-67
2023/04/17 12:47:11;;;;;;;18.92;15.48;;;;;;;;;;5065892;28;20064;-67
2023/04/17 12:49:38;;;;;;;18.45;14.82;;;;;;;;;;5065580;28;20132;-66
2023/04/17 12:52:04;;;;;;;21.25;14.43;;;;;;;;;;5066115;28;20444;-67
2023/04/17 12:54:30;;;;;;;17.13;13.88;;;;;;;;;;5045673;28;20047;-67
2023/04/17 12:56:57;;;;;;;16.60;14.73;;;;;;;;;;5065869;28;20037;-67
2023/04/17 12:59:23;;;;;;;19.27;12.75;;;;;;;;;;5063549;28;20045;-66
2023/04/17 13:01:49;;;;;;;16.85;14.60;;;;;;;;;;5047108;28;20063;-66
2023/04/17 13:04:15;;;;;;;16.85;14.73;;;;;;;;;;5065687;28;20079;-66
2023/04/17 13:06:41;;;;;;;17.50;13.90;;;;;;;;;;5065927;28;20040;-66
2023/04/17 13:09:07;;;;;;;18.23;14.85;;;;;;;;;;5064726;28;20507;-66
2023/04/17 13:11:34;;;;;;;16.77;14.05;;;;;;;;;;5066209;28;20046;-66
2023/04/17 13:14:00;;;;;;;17.08;13.57;;;;;;;;;;5051852;28;20063;-66
2023/04/17 13:16:26;;;;;;;17.13;15.10;;;;;;;;;;5068179;28;20485;-66
2023/04/17 13:18:52;;;;;;;18.27;15.50;;;;;;;;;;5068452;28;20381;-66
2023/04/17 13:21:19;;;;;;;18.30;13.85;;;;;;;;;;5069191;28;20468;-66
2023/04/17 13:23:45;;;;;;;18.05;15.02;;;;;;;;;;5068640;28;20044;-66
2023/04/17 13:26:11;;;;;;;18.25;15.27;;;;;;;;;;5070090;28;20079;-66
2023/04/17 13:28:38;;;;;;;16.65;14.73;;;;;;;;;;5069182;28;20052;-66
2023/04/17 13:31:04;;;;;;;20.52;15.05;;;;;;;;;;5067931;28;20080;-66
2023/04/17 13:33:30;;;;;;;20.58;15.98;;;;;;;;;;5069230;28;20124;-66
2023/04/17 13:35:57;;;;;;;18.55;15.45;;;;;;;;;;5068888;28;20182;-66
2023/04/17 13:38:23;;;;;;;15.77;13.77;;;;;;;;;;5050525;28;20045;-66
2023/04/17 13:40:49;;;;;;;16.23;14.23;;;;;;;;;;5069727;28;20419;-66
2023/04/17 13:43:15;;;;;;;18.23;14.52;;;;;;;;;;5067887;28;20053;-66
2023/04/17 13:45:42;;;;;;;18.25;13.50;;;;;;;;;;5050728;28;20041;-66
2023/04/17 13:48:08;;;;;;;19.27;14.52;;;;;;;;;;5069002;28;20040;-66
2023/04/17 13:50:34;;;;;;;19.50;13.88;;;;;;;;;;5050195;28;20048;-66
2023/04/17 13:53:00;;;;;;;17.40;14.73;;;;;;;;;;5065747;28;20041;-66
2023/04/17 13:55:27;;;;;;;16.23;14.38;;;;;;;;;;5068925;28;20036;-66
2023/04/17 13:57:53;;;;;;;16.52;14.82;;;;;;;;;;5068034;28;20085;-67
2023/04/17 14:00:20;;;;;;;16.63;13.52;;;;;;;;;;5047042;28;20345;-66
2023/04/17 14:02:47;;;;;;;14.60;12.65;;;;;;;;;;5068947;28;20059;-66
2023/04/17 14:05:13;;;;;;;14.75;12.73;;;;;;;;;;5067251;28;20053;-66
2023/04/17 14:07:39;;;;;;;14.88;12.57;;;;;;;;;;5068174;28;20040;-66
2023/04/17 14:10:05;;;;;;;16.77;13.05;;;;;;;;;;5050261;28;20546;-66
2023/04/17 14:12:32;;;;;;;16.02;12.60;;;;;;;;;;5046503;28;20053;-66
2023/04/17 14:14:58;;;;;;;13.88;12.20;;;;;;;;;;5064617;28;20120;-66